sensor_id;sensor_type;location;lat;lon;timestamp;temperature;humidity
47162;DHT22;32921;53.256;8.198;2022-07-18T00:01:46;15.70;99.90
47162;DHT22;32921;53.256;8.198;2022-07-18T00:04:12;15.60;99.90
47162;DHT22;32921;53.256;8.198;2022-07-18T00:06:38;15.50;99.90
47162;DHT22;32921;53.256;8.198;2022-07-18T00:09:03;15.60;99.90
47162;DHT22;32921;53.256;8.198;2022-07-18T00:11:29;15.80;99.90
47162;DHT22;32921;53.256;8.198;2022-07-18T00:13:55;15.60;99.90
47162;DHT22;32921;53.256;8.198;2022-07-18T00:16:21;15.50;99.90
47162;DHT22;32921;53.256;8.198;2022-07-18T00:18:49;15.40;99.90
47162;DHT22;32921;53.256;8.198;2022-07-18T00:21:14;15.30;99.90
47162;DHT22;32921;53.256;8.198;2022-07-18T00:23:40;15.20;99.90
47162;DHT22;32921;53.256;8.198;2022-07-18T00:26:06;15.40;99.90
47162;DHT22;32921;53.256;8.198;2022-07-18T00:28:31;15.40;99.90
47162;DHT22;32921;53.256;8.198;2022-07-18T00:30:57;15.40;99.90
47162;DHT22;32921;53.256;8.198;2022-07-18T00:33:22;15.30;99.90
47162;DHT22;32921;53.256;8.198;2022-07-18T00:35:48;15.10;99.90
47162;DHT22;32921;53.256;8.198;2022-07-18T00:38:14;15.00;99.90
47162;DHT22;32921;53.256;8.198;2022-07-18T00:40:40;14.90;99.90
47162;DHT22;32921;53.256;8.198;2022-07-18T00:43:06;14.80;99.90
47162;DHT22;32921;53.256;8.198;2022-07-18T00:45:32;14.80;99.90
47162;DHT22;32921;53.256;8.198;2022-07-18T00:47:57;14.70;99.90
47162;DHT22;32921;53.256;8.198;2022-07-18T00:50:23;14.60;99.90
47162;DHT22;32921;53.256;8.198;2022-07-18T00:52:49;14.80;99.90
47162;DHT22;32921;53.256;8.198;2022-07-18T00:55:15;14.90;99.90
47162;DHT22;32921;53.256;8.198;2022-07-18T00:57:42;15.00;99.90
47162;DHT22;32921;53.256;8.198;2022-07-18T01:00:39;14.90;99.90
47162;DHT22;32921;53.256;8.198;2022-07-18T01:03:23;14.70;99.90
47162;DHT22;32921;53.256;8.198;2022-07-18T01:05:49;14.60;99.90
47162;DHT22;32921;53.256;8.198;2022-07-18T01:08:15;14.70;99.90
47162;DHT22;32921;53.256;8.198;2022-07-18T01:10:41;14.70;99.90
47162;DHT22;32921;53.256;8.198;2022-07-18T01:13:07;14.60;99.90
47162;DHT22;32921;53.256;8.198;2022-07-18T01:15:33;14.60;99.90
47162;DHT22;32921;53.256;8.198;2022-07-18T01:17:59;14.70;99.90
47162;DHT22;32921;53.256;8.198;2022-07-18T01:20:29;14.70;99.90
47162;DHT22;32921;53.256;8.198;2022-07-18T01:22:54;14.60;99.90
47162;DHT22;32921;53.256;8.198;2022-07-18T01:25:20;14.70;99.90
47162;DHT22;32921;53.256;8.198;2022-07-18T01:27:46;14.80;99.90
47162;DHT22;32921;53.256;8.198;2022-07-18T01:30:12;14.80;99.90
47162;DHT22;32921;53.256;8.198;2022-07-18T01:32:37;14.80;99.90
47162;DHT22;32921;53.256;8.198;2022-07-18T01:35:04;14.70;99.90
47162;DHT22;32921;53.256;8.198;2022-07-18T01:37:29;14.60;99.90
47162;DHT22;32921;53.256;8.198;2022-07-18T01:39:55;14.60;99.90
47162;DHT22;32921;53.256;8.198;2022-07-18T01:42:21;14.70;99.90
47162;DHT22;32921;53.256;8.198;2022-07-18T01:44:46;14.60;99.90
47162;DHT22;32921;53.256;8.198;2022-07-18T01:47:12;14.70;99.90
47162;DHT22;32921;53.256;8.198;2022-07-18T01:49:38;14.70;99.90
47162;DHT22;32921;53.256;8.198;2022-07-18T01:52:04;14.60;99.90
47162;DHT22;32921;53.256;8.198;2022-07-18T01:54:31;14.50;99.90
47162;DHT22;32921;53.256;8.198;2022-07-18T01:56:59;14.50;99.90
47162;DHT22;32921;53.256;8.198;2022-07-18T01:59:25;14.40;99.90
47162;DHT22;32921;53.256;8.198;2022-07-18T02:01:51;14.60;99.90
47162;DHT22;32921;53.256;8.198;2022-07-18T02:04:17;14.50;99.90
47162;DHT22;32921;53.256;8.198;2022-07-18T02:06:43;14.40;99.90
47162;DHT22;32921;53.256;8.198;2022-07-18T02:09:09;14.40;99.90
47162;DHT22;32921;53.256;8.198;2022-07-18T02:11:35;14.40;99.90
47162;DHT22;32921;53.256;8.198;2022-07-18T02:14:01;14.20;99.90
47162;DHT22;32921;53.256;8.198;2022-07-18T02:16:27;14.10;99.90
47162;DHT22;32921;53.256;8.198;2022-07-18T02:18:54;14.10;99.90
47162;DHT22;32921;53.256;8.198;2022-07-18T02:21:20;14.00;99.90
47162;DHT22;32921;53.256;8.198;2022-07-18T02:23:46;14.20;99.90
47162;DHT22;32921;53.256;8.198;2022-07-18T02:26:11;14.30;99.90
47162;DHT22;32921;53.256;8.198;2022-07-18T02:28:37;14.10;99.90
47162;DHT22;32921;53.256;8.198;2022-07-18T02:31:04;14.00;99.90
47162;DHT22;32921;53.256;8.198;2022-07-18T02:33:31;13.90;99.90
47162;DHT22;32921;53.256;8.198;2022-07-18T02:35:56;13.80;99.90
47162;DHT22;32921;53.256;8.198;2022-07-18T02:38:22;13.70;99.90
47162;DHT22;32921;53.256;8.198;2022-07-18T02:40:48;13.60;99.90
47162;DHT22;32921;53.256;8.198;2022-07-18T02:43:14;13.60;99.90
47162;DHT22;32921;53.256;8.198;2022-07-18T02:45:40;13.70;99.90
47162;DHT22;32921;53.256;8.198;2022-07-18T02:48:05;13.70;99.90
47162;DHT22;32921;53.256;8.198;2022-07-18T02:50:31;13.80;99.90
47162;DHT22;32921;53.256;8.198;2022-07-18T02:52:56;13.90;99.90
47162;DHT22;32921;53.256;8.198;2022-07-18T02:55:23;13.90;99.90
47162;DHT22;32921;53.256;8.198;2022-07-18T02:57:49;13.90;99.90
47162;DHT22;32921;53.256;8.198;2022-07-18T03:00:15;13.90;99.90
47162;DHT22;32921;53.256;8.198;2022-07-18T03:02:42;13.80;99.90
47162;DHT22;32921;53.256;8.198;2022-07-18T03:05:09;13.70;99.90
47162;DHT22;32921;53.256;8.198;2022-07-18T03:07:34;13.70;99.90
47162;DHT22;32921;53.256;8.198;2022-07-18T03:10:00;13.60;99.90
47162;DHT22;32921;53.256;8.198;2022-07-18T03:12:26;13.60;99.90
47162;DHT22;32921;53.256;8.198;2022-07-18T03:14:51;13.70;99.90
47162;DHT22;32921;53.256;8.198;2022-07-18T03:17:17;13.90;99.90
47162;DHT22;32921;53.256;8.198;2022-07-18T03:19:43;13.90;99.90
47162;DHT22;32921;53.256;8.198;2022-07-18T03:22:09;13.80;99.90
47162;DHT22;32921;53.256;8.198;2022-07-18T03:24:35;13.90;99.90
47162;DHT22;32921;53.256;8.198;2022-07-18T03:27:01;14.00;99.90
47162;DHT22;32921;53.256;8.198;2022-07-18T03:29:26;14.00;99.90
47162;DHT22;32921;53.256;8.198;2022-07-18T03:31:52;14.00;99.90
47162;DHT22;32921;53.256;8.198;2022-07-18T03:34:18;14.10;99.90
47162;DHT22;32921;53.256;8.198;2022-07-18T03:36:44;14.20;99.90
47162;DHT22;32921;53.256;8.198;2022-07-18T03:39:10;14.30;99.90
47162;DHT22;32921;53.256;8.198;2022-07-18T03:41:37;14.40;99.90
47162;DHT22;32921;53.256;8.198;2022-07-18T03:44:03;14.40;99.90
47162;DHT22;32921;53.256;8.198;2022-07-18T03:46:29;14.50;99.90
47162;DHT22;32921;53.256;8.198;2022-07-18T03:48:55;14.60;99.90
47162;DHT22;32921;53.256;8.198;2022-07-18T03:51:20;14.70;99.90
47162;DHT22;32921;53.256;8.198;2022-07-18T03:53:46;14.80;99.90
47162;DHT22;32921;53.256;8.198;2022-07-18T03:56:12;14.90;99.90
47162;DHT22;32921;53.256;8.198;2022-07-18T03:58:37;14.90;99.90
47162;DHT22;32921;53.256;8.198;2022-07-18T04:01:03;15.00;99.90
47162;DHT22;32921;53.256;8.198;2022-07-18T04:03:29;15.00;99.90
47162;DHT22;32921;53.256;8.198;2022-07-18T04:05:55;15.10;99.90
47162;DHT22;32921;53.256;8.198;2022-07-18T04:08:20;15.10;99.90
47162;DHT22;32921;53.256;8.198;2022-07-18T04:10:46;15.20;99.90
47162;DHT22;32921;53.256;8.198;2022-07-18T04:13:12;15.20;99.90
47162;DHT22;32921;53.256;8.198;2022-07-18T04:15:39;15.40;99.90
47162;DHT22;32921;53.256;8.198;2022-07-18T04:18:06;15.50;99.90
47162;DHT22;32921;53.256;8.198;2022-07-18T04:20:33;15.60;99.90
47162;DHT22;32921;53.256;8.198;2022-07-18T04:23:01;15.70;99.90
47162;DHT22;32921;53.256;8.198;2022-07-18T04:25:28;15.80;99.90
47162;DHT22;32921;53.256;8.198;2022-07-18T04:27:55;15.80;99.90
47162;DHT22;32921;53.256;8.198;2022-07-18T04:30:23;16.00;99.90
47162;DHT22;32921;53.256;8.198;2022-07-18T04:32:49;16.00;99.90
47162;DHT22;32921;53.256;8.198;2022-07-18T04:35:15;16.10;99.90
47162;DHT22;32921;53.256;8.198;2022-07-18T04:37:41;16.20;99.90
47162;DHT22;32921;53.256;8.198;2022-07-18T04:40:09;16.30;99.90
47162;DHT22;32921;53.256;8.198;2022-07-18T04:42:35;16.40;99.90
47162;DHT22;32921;53.256;8.198;2022-07-18T04:45:01;16.50;99.90
47162;DHT22;32921;53.256;8.198;2022-07-18T04:47:27;16.70;99.90
47162;DHT22;32921;53.256;8.198;2022-07-18T04:49:53;16.70;99.90
47162;DHT22;32921;53.256;8.198;2022-07-18T04:52:19;16.90;99.90
47162;DHT22;32921;53.256;8.198;2022-07-18T04:54:45;17.00;99.90
47162;DHT22;32921;53.256;8.198;2022-07-18T04:57:11;17.20;99.90
47162;DHT22;32921;53.256;8.198;2022-07-18T04:59:41;17.20;99.90
47162;DHT22;32921;53.256;8.198;2022-07-18T05:02:08;17.40;99.90
47162;DHT22;32921;53.256;8.198;2022-07-18T05:04:34;17.50;99.90
47162;DHT22;32921;53.256;8.198;2022-07-18T05:07:00;17.50;99.90
47162;DHT22;32921;53.256;8.198;2022-07-18T05:09:26;17.60;99.90
47162;DHT22;32921;53.256;8.198;2022-07-18T05:11:53;17.70;99.90
47162;DHT22;32921;53.256;8.198;2022-07-18T05:14:18;17.80;99.90
47162;DHT22;32921;53.256;8.198;2022-07-18T05:16:44;17.80;99.90
47162;DHT22;32921;53.256;8.198;2022-07-18T05:19:10;17.70;99.90
47162;DHT22;32921;53.256;8.198;2022-07-18T05:21:35;17.70;99.90
47162;DHT22;32921;53.256;8.198;2022-07-18T05:24:01;17.70;99.90
47162;DHT22;32921;53.256;8.198;2022-07-18T05:26:27;17.70;99.90
47162;DHT22;32921;53.256;8.198;2022-07-18T05:28:52;17.80;99.90
47162;DHT22;32921;53.256;8.198;2022-07-18T05:31:18;18.00;99.90
47162;DHT22;32921;53.256;8.198;2022-07-18T05:33:43;18.10;99.90
47162;DHT22;32921;53.256;8.198;2022-07-18T05:36:15;18.20;99.90
47162;DHT22;32921;53.256;8.198;2022-07-18T05:38:40;18.30;99.90
47162;DHT22;32921;53.256;8.198;2022-07-18T05:41:06;18.50;99.90
47162;DHT22;32921;53.256;8.198;2022-07-18T05:43:32;18.60;99.90
47162;DHT22;32921;53.256;8.198;2022-07-18T05:45:57;18.60;99.90
47162;DHT22;32921;53.256;8.198;2022-07-18T05:48:23;18.90;99.90
47162;DHT22;32921;53.256;8.198;2022-07-18T05:50:55;19.00;99.90
47162;DHT22;32921;53.256;8.198;2022-07-18T05:53:20;19.40;99.90
47162;DHT22;32921;53.256;8.198;2022-07-18T05:55:46;19.80;99.90
47162;DHT22;32921;53.256;8.198;2022-07-18T05:58:11;20.40;99.90
47162;DHT22;32921;53.256;8.198;2022-07-18T06:00:37;20.90;99.90
47162;DHT22;32921;53.256;8.198;2022-07-18T06:03:03;21.40;97.90
47162;DHT22;32921;53.256;8.198;2022-07-18T06:05:28;22.30;93.50
47162;DHT22;32921;53.256;8.198;2022-07-18T06:07:55;23.00;92.60
47162;DHT22;32921;53.256;8.198;2022-07-18T06:10:22;23.00;91.60
47162;DHT22;32921;53.256;8.198;2022-07-18T06:12:48;22.90;91.70
47162;DHT22;32921;53.256;8.198;2022-07-18T06:15:15;23.70;91.00
47162;DHT22;32921;53.256;8.198;2022-07-18T06:17:42;24.20;86.20
47162;DHT22;32921;53.256;8.198;2022-07-18T06:20:08;24.80;86.70
47162;DHT22;32921;53.256;8.198;2022-07-18T06:22:35;25.40;81.60
47162;DHT22;32921;53.256;8.198;2022-07-18T06:25:01;25.60;78.80
47162;DHT22;32921;53.256;8.198;2022-07-18T06:27:26;25.40;80.10
47162;DHT22;32921;53.256;8.198;2022-07-18T06:29:52;25.10;81.20
47162;DHT22;32921;53.256;8.198;2022-07-18T06:32:18;24.90;80.80
47162;DHT22;32921;53.256;8.198;2022-07-18T06:34:43;25.00;81.40
47162;DHT22;32921;53.256;8.198;2022-07-18T06:37:09;24.80;79.30
47162;DHT22;32921;53.256;8.198;2022-07-18T06:39:34;24.80;79.20
47162;DHT22;32921;53.256;8.198;2022-07-18T06:42:00;24.60;80.00
47162;DHT22;32921;53.256;8.198;2022-07-18T06:44:26;24.20;80.90
47162;DHT22;32921;53.256;8.198;2022-07-18T06:46:51;24.40;80.00
47162;DHT22;32921;53.256;8.198;2022-07-18T06:49:20;24.80;80.80
47162;DHT22;32921;53.256;8.198;2022-07-18T06:51:46;24.90;78.00
47162;DHT22;32921;53.256;8.198;2022-07-18T06:54:11;24.80;76.90
47162;DHT22;32921;53.256;8.198;2022-07-18T06:56:37;24.90;77.30
47162;DHT22;32921;53.256;8.198;2022-07-18T06:59:03;25.70;77.30
47162;DHT22;32921;53.256;8.198;2022-07-18T07:01:28;26.00;74.00
47162;DHT22;32921;53.256;8.198;2022-07-18T07:03:54;26.30;73.00
47162;DHT22;32921;53.256;8.198;2022-07-18T07:06:19;26.60;73.30
47162;DHT22;32921;53.256;8.198;2022-07-18T07:08:45;26.90;72.90
47162;DHT22;32921;53.256;8.198;2022-07-18T07:11:11;27.30;71.10
47162;DHT22;32921;53.256;8.198;2022-07-18T07:13:36;27.40;69.40
47162;DHT22;32921;53.256;8.198;2022-07-18T07:16:02;27.40;66.20
47162;DHT22;32921;53.256;8.198;2022-07-18T07:18:28;27.40;67.00
47162;DHT22;32921;53.256;8.198;2022-07-18T07:20:53;26.80;67.40
47162;DHT22;32921;53.256;8.198;2022-07-18T07:23:19;26.80;68.00
47162;DHT22;32921;53.256;8.198;2022-07-18T07:25:45;26.90;68.20
47162;DHT22;32921;53.256;8.198;2022-07-18T07:28:10;27.30;68.40
47162;DHT22;32921;53.256;8.198;2022-07-18T07:30:36;27.60;65.70
47162;DHT22;32921;53.256;8.198;2022-07-18T07:33:02;27.70;64.70
47162;DHT22;32921;53.256;8.198;2022-07-18T07:35:28;27.50;62.10
47162;DHT22;32921;53.256;8.198;2022-07-18T07:37:58;27.20;64.80
47162;DHT22;32921;53.256;8.198;2022-07-18T07:40:26;26.90;65.60
47162;DHT22;32921;53.256;8.198;2022-07-18T07:42:52;27.20;62.60
47162;DHT22;32921;53.256;8.198;2022-07-18T07:45:18;27.80;65.00
47162;DHT22;32921;53.256;8.198;2022-07-18T07:47:44;28.40;65.80
47162;DHT22;32921;53.256;8.198;2022-07-18T07:50:11;28.60;60.70
47162;DHT22;32921;53.256;8.198;2022-07-18T07:52:38;28.60;60.90
47162;DHT22;32921;53.256;8.198;2022-07-18T07:55:05;28.60;63.00
47162;DHT22;32921;53.256;8.198;2022-07-18T07:57:31;28.50;61.40
47162;DHT22;32921;53.256;8.198;2022-07-18T07:59:56;28.60;61.90
47162;DHT22;32921;53.256;8.198;2022-07-18T08:02:22;28.80;61.90
47162;DHT22;32921;53.256;8.198;2022-07-18T08:04:48;28.80;58.70
47162;DHT22;32921;53.256;8.198;2022-07-18T08:07:15;28.60;60.80
47162;DHT22;32921;53.256;8.198;2022-07-18T08:09:41;28.60;62.20
47162;DHT22;32921;53.256;8.198;2022-07-18T08:12:06;28.60;60.20
47162;DHT22;32921;53.256;8.198;2022-07-18T08:14:32;28.70;58.70
47162;DHT22;32921;53.256;8.198;2022-07-18T08:16:59;28.80;60.80
47162;DHT22;32921;53.256;8.198;2022-07-18T08:19:24;28.90;60.70
47162;DHT22;32921;53.256;8.198;2022-07-18T08:21:50;28.60;61.20
47162;DHT22;32921;53.256;8.198;2022-07-18T08:24:15;28.10;62.00
47162;DHT22;32921;53.256;8.198;2022-07-18T08:26:41;27.90;59.20
47162;DHT22;32921;53.256;8.198;2022-07-18T08:29:07;28.00;62.30
47162;DHT22;32921;53.256;8.198;2022-07-18T08:31:33;28.40;61.30
47162;DHT22;32921;53.256;8.198;2022-07-18T08:33:59;28.80;62.00
47162;DHT22;32921;53.256;8.198;2022-07-18T08:36:24;29.20;59.40
47162;DHT22;32921;53.256;8.198;2022-07-18T08:38:50;28.60;57.00
47162;DHT22;32921;53.256;8.198;2022-07-18T08:41:22;28.80;56.00
47162;DHT22;32921;53.256;8.198;2022-07-18T08:43:48;28.80;58.10
47162;DHT22;32921;53.256;8.198;2022-07-18T08:46:20;28.90;57.30
47162;DHT22;32921;53.256;8.198;2022-07-18T08:48:47;29.60;57.20
47162;DHT22;32921;53.256;8.198;2022-07-18T08:51:13;30.70;59.00
47162;DHT22;32921;53.256;8.198;2022-07-18T08:53:39;30.30;55.00
47162;DHT22;32921;53.256;8.198;2022-07-18T08:56:05;30.10;55.90
47162;DHT22;32921;53.256;8.198;2022-07-18T08:58:31;30.50;53.00
47162;DHT22;32921;53.256;8.198;2022-07-18T09:00:57;30.50;54.50
47162;DHT22;32921;53.256;8.198;2022-07-18T09:03:26;30.00;55.70
47162;DHT22;32921;53.256;8.198;2022-07-18T09:06:09;29.50;53.70
47162;DHT22;32921;53.256;8.198;2022-07-18T09:08:35;29.60;53.00
47162;DHT22;32921;53.256;8.198;2022-07-18T09:11:04;30.60;55.40
47162;DHT22;32921;53.256;8.198;2022-07-18T09:13:36;31.30;56.70
47162;DHT22;32921;53.256;8.198;2022-07-18T09:16:07;31.90;51.20
47162;DHT22;32921;53.256;8.198;2022-07-18T09:18:33;32.10;52.40
47162;DHT22;32921;53.256;8.198;2022-07-18T09:21:01;32.60;49.90
47162;DHT22;32921;53.256;8.198;2022-07-18T09:23:30;32.90;50.50
47162;DHT22;32921;53.256;8.198;2022-07-18T09:25:56;32.10;51.40
47162;DHT22;32921;53.256;8.198;2022-07-18T09:28:22;31.90;50.00
47162;DHT22;32921;53.256;8.198;2022-07-18T09:30:47;31.50;52.10
47162;DHT22;32921;53.256;8.198;2022-07-18T09:33:13;31.40;49.30
47162;DHT22;32921;53.256;8.198;2022-07-18T09:38:18;31.90;53.40
47162;DHT22;32921;53.256;8.198;2022-07-18T09:40:48;32.00;51.40
47162;DHT22;32921;53.256;8.198;2022-07-18T09:43:19;32.10;48.60
47162;DHT22;32921;53.256;8.198;2022-07-18T09:45:50;31.90;48.60
47162;DHT22;32921;53.256;8.198;2022-07-18T09:48:18;31.30;51.20
47162;DHT22;32921;53.256;8.198;2022-07-18T09:53:22;31.20;50.90
47162;DHT22;32921;53.256;8.198;2022-07-18T09:55:54;31.40;47.70
47162;DHT22;32921;53.256;8.198;2022-07-18T09:58:25;31.30;46.60
47162;DHT22;32921;53.256;8.198;2022-07-18T10:00:52;31.40;48.70
47162;DHT22;32921;53.256;8.198;2022-07-18T10:03:19;31.60;47.10
47162;DHT22;32921;53.256;8.198;2022-07-18T10:05:47;32.10;47.40
47162;DHT22;32921;53.256;8.198;2022-07-18T10:08:16;32.10;46.00
47162;DHT22;32921;53.256;8.198;2022-07-18T10:10:44;32.20;47.20
47162;DHT22;32921;53.256;8.198;2022-07-18T10:13:11;31.80;46.60
47162;DHT22;32921;53.256;8.198;2022-07-18T10:15:38;31.80;47.40
47162;DHT22;32921;53.256;8.198;2022-07-18T10:18:06;31.40;46.30
47162;DHT22;32921;53.256;8.198;2022-07-18T10:20:38;31.00;46.60
47162;DHT22;32921;53.256;8.198;2022-07-18T10:23:10;31.10;48.20
47162;DHT22;32921;53.256;8.198;2022-07-18T10:25:38;31.60;50.70
47162;DHT22;32921;53.256;8.198;2022-07-18T10:28:06;32.50;48.40
47162;DHT22;32921;53.256;8.198;2022-07-18T10:33:00;33.20;48.30
47162;DHT22;32921;53.256;8.198;2022-07-18T10:38:26;33.50;45.70
47162;DHT22;32921;53.256;8.198;2022-07-18T10:45:56;34.00;45.60
47162;DHT22;32921;53.256;8.198;2022-07-18T10:48:54;33.90;42.00
47162;DHT22;32921;53.256;8.198;2022-07-18T10:51:28;34.60;43.80
47162;DHT22;32921;53.256;8.198;2022-07-18T10:54:12;35.20;44.50
47162;DHT22;32921;53.256;8.198;2022-07-18T10:59:18;35.40;45.90
47162;DHT22;32921;53.256;8.198;2022-07-18T11:01:48;35.60;40.80
47162;DHT22;32921;53.256;8.198;2022-07-18T11:04:33;35.80;42.10
47162;DHT22;32921;53.256;8.198;2022-07-18T11:07:14;35.70;41.20
47162;DHT22;32921;53.256;8.198;2022-07-18T11:09:48;36.00;41.80
47162;DHT22;32921;53.256;8.198;2022-07-18T11:22:59;37.40;38.80
47162;DHT22;32921;53.256;8.198;2022-07-18T11:25:29;36.90;39.20
47162;DHT22;32921;53.256;8.198;2022-07-18T11:31:16;36.10;41.80
47162;DHT22;32921;53.256;8.198;2022-07-18T11:33:47;36.70;39.90
47162;DHT22;32921;53.256;8.198;2022-07-18T11:36:14;37.70;40.40
47162;DHT22;32921;53.256;8.198;2022-07-18T11:38:53;37.70;37.00
47162;DHT22;32921;53.256;8.198;2022-07-18T11:41:21;37.90;39.40
47162;DHT22;32921;53.256;8.198;2022-07-18T11:43:49;38.10;36.80
47162;DHT22;32921;53.256;8.198;2022-07-18T11:46:17;37.60;37.90
47162;DHT22;32921;53.256;8.198;2022-07-18T11:48:46;37.10;40.40
47162;DHT22;32921;53.256;8.198;2022-07-18T11:51:17;36.50;37.20
47162;DHT22;32921;53.256;8.198;2022-07-18T11:56:09;36.50;39.20
47162;DHT22;32921;53.256;8.198;2022-07-18T11:58:39;36.70;37.50
47162;DHT22;32921;53.256;8.198;2022-07-18T12:01:05;36.90;38.30
47162;DHT22;32921;53.256;8.198;2022-07-18T12:03:37;36.50;38.70
47162;DHT22;32921;53.256;8.198;2022-07-18T12:06:19;36.60;38.30
47162;DHT22;32921;53.256;8.198;2022-07-18T12:08:52;37.50;41.10
47162;DHT22;32921;53.256;8.198;2022-07-18T12:11:38;38.40;37.40
47162;DHT22;32921;53.256;8.198;2022-07-18T12:19:18;38.50;38.60
47162;DHT22;32921;53.256;8.198;2022-07-18T12:21:56;38.10;36.50
47162;DHT22;32921;53.256;8.198;2022-07-18T12:29:58;39.00;35.70
47162;DHT22;32921;53.256;8.198;2022-07-18T12:35:03;39.30;37.00
47162;DHT22;32921;53.256;8.198;2022-07-18T12:37:29;39.20;36.20
47162;DHT22;32921;53.256;8.198;2022-07-18T12:39:57;39.20;36.60
47162;DHT22;32921;53.256;8.198;2022-07-18T12:42:37;39.20;35.40
47162;DHT22;32921;53.256;8.198;2022-07-18T12:45:04;38.50;35.80
47162;DHT22;32921;53.256;8.198;2022-07-18T12:47:30;37.70;36.10
47162;DHT22;32921;53.256;8.198;2022-07-18T12:49:56;38.00;36.30
47162;DHT22;32921;53.256;8.198;2022-07-18T12:52:22;38.40;37.50
47162;DHT22;32921;53.256;8.198;2022-07-18T12:54:48;39.10;36.00
47162;DHT22;32921;53.256;8.198;2022-07-18T12:57:14;39.90;38.10
47162;DHT22;32921;53.256;8.198;2022-07-18T12:59:40;40.00;35.70
47162;DHT22;32921;53.256;8.198;2022-07-18T13:02:05;38.90;36.90
47162;DHT22;32921;53.256;8.198;2022-07-18T13:04:31;37.70;37.00
47162;DHT22;32921;53.256;8.198;2022-07-18T13:06:56;37.30;36.30
47162;DHT22;32921;53.256;8.198;2022-07-18T13:09:23;36.80;36.90
47162;DHT22;32921;53.256;8.198;2022-07-18T13:11:48;36.20;39.10
47162;DHT22;32921;53.256;8.198;2022-07-18T13:14:15;36.60;37.70
47162;DHT22;32921;53.256;8.198;2022-07-18T13:16:45;37.90;36.30
47162;DHT22;32921;53.256;8.198;2022-07-18T13:19:13;38.20;36.40
47162;DHT22;32921;53.256;8.198;2022-07-18T13:21:39;36.90;36.70
47162;DHT22;32921;53.256;8.198;2022-07-18T13:24:05;36.30;37.70
47162;DHT22;32921;53.256;8.198;2022-07-18T13:26:31;35.80;37.50
47162;DHT22;32921;53.256;8.198;2022-07-18T13:28:56;35.80;38.10
47162;DHT22;32921;53.256;8.198;2022-07-18T13:31:22;35.90;37.70
47162;DHT22;32921;53.256;8.198;2022-07-18T13:33:47;36.20;37.30
47162;DHT22;32921;53.256;8.198;2022-07-18T13:36:14;35.20;39.70
47162;DHT22;32921;53.256;8.198;2022-07-18T13:38:39;35.00;38.80
47162;DHT22;32921;53.256;8.198;2022-07-18T13:41:05;35.50;40.20
47162;DHT22;32921;53.256;8.198;2022-07-18T13:43:31;35.80;40.00
47162;DHT22;32921;53.256;8.198;2022-07-18T13:45:56;35.90;40.70
47162;DHT22;32921;53.256;8.198;2022-07-18T13:48:22;36.60;40.40
47162;DHT22;32921;53.256;8.198;2022-07-18T13:50:47;37.80;38.50
47162;DHT22;32921;53.256;8.198;2022-07-18T13:53:13;38.70;36.70
47162;DHT22;32921;53.256;8.198;2022-07-18T13:55:38;38.80;35.50
47162;DHT22;32921;53.256;8.198;2022-07-18T13:58:04;37.90;37.70
47162;DHT22;32921;53.256;8.198;2022-07-18T14:00:30;37.00;36.90
47162;DHT22;32921;53.256;8.198;2022-07-18T14:02:56;36.80;36.60
47162;DHT22;32921;53.256;8.198;2022-07-18T14:05:21;36.90;37.90
47162;DHT22;32921;53.256;8.198;2022-07-18T14:07:47;36.50;37.90
47162;DHT22;32921;53.256;8.198;2022-07-18T14:10:14;36.00;38.50
47162;DHT22;32921;53.256;8.198;2022-07-18T14:12:41;36.50;38.40
47162;DHT22;32921;53.256;8.198;2022-07-18T14:15:07;36.80;37.30
47162;DHT22;32921;53.256;8.198;2022-07-18T14:17:33;37.90;37.40
47162;DHT22;32921;53.256;8.198;2022-07-18T14:19:59;38.00;37.00
47162;DHT22;32921;53.256;8.198;2022-07-18T14:22:25;37.10;37.10
47162;DHT22;32921;53.256;8.198;2022-07-18T14:24:50;37.60;37.50
47162;DHT22;32921;53.256;8.198;2022-07-18T14:27:16;37.70;37.70
47162;DHT22;32921;53.256;8.198;2022-07-18T14:29:42;38.50;37.60
47162;DHT22;32921;53.256;8.198;2022-07-18T14:32:07;38.70;36.70
47162;DHT22;32921;53.256;8.198;2022-07-18T14:34:34;39.00;37.20
47162;DHT22;32921;53.256;8.198;2022-07-18T14:36:59;40.20;35.70
47162;DHT22;32921;53.256;8.198;2022-07-18T14:39:25;40.70;35.40
47162;DHT22;32921;53.256;8.198;2022-07-18T14:41:51;41.70;35.10
47162;DHT22;32921;53.256;8.198;2022-07-18T14:44:17;41.50;35.20
47162;DHT22;32921;53.256;8.198;2022-07-18T14:46:43;41.80;34.90
47162;DHT22;32921;53.256;8.198;2022-07-18T14:49:08;41.90;36.70
47162;DHT22;32921;53.256;8.198;2022-07-18T14:51:34;42.30;35.50
47162;DHT22;32921;53.256;8.198;2022-07-18T14:53:59;41.90;33.90
47162;DHT22;32921;53.256;8.198;2022-07-18T14:56:25;41.00;34.60
47162;DHT22;32921;53.256;8.198;2022-07-18T14:58:51;40.10;35.30
47162;DHT22;32921;53.256;8.198;2022-07-18T15:01:17;39.70;35.40
47162;DHT22;32921;53.256;8.198;2022-07-18T15:03:45;39.70;35.90
47162;DHT22;32921;53.256;8.198;2022-07-18T15:06:11;40.30;35.80
47162;DHT22;32921;53.256;8.198;2022-07-18T15:08:36;40.60;34.80
47162;DHT22;32921;53.256;8.198;2022-07-18T15:11:02;39.40;34.90
47162;DHT22;32921;53.256;8.198;2022-07-18T15:13:28;39.30;36.30
47162;DHT22;32921;53.256;8.198;2022-07-18T15:15:53;39.00;36.50
47162;DHT22;32921;53.256;8.198;2022-07-18T15:18:19;39.20;37.20
47162;DHT22;32921;53.256;8.198;2022-07-18T15:20:45;40.10;36.80
47162;DHT22;32921;53.256;8.198;2022-07-18T15:23:10;40.50;35.50
47162;DHT22;32921;53.256;8.198;2022-07-18T15:25:36;41.30;34.90
47162;DHT22;32921;53.256;8.198;2022-07-18T15:28:01;41.60;35.30
47162;DHT22;32921;53.256;8.198;2022-07-18T15:30:27;42.30;34.30
47162;DHT22;32921;53.256;8.198;2022-07-18T15:32:52;40.20;35.10
47162;DHT22;32921;53.256;8.198;2022-07-18T15:35:18;40.60;34.90
47162;DHT22;32921;53.256;8.198;2022-07-18T15:37:44;40.90;36.40
47162;DHT22;32921;53.256;8.198;2022-07-18T15:40:09;41.20;34.30
47162;DHT22;32921;53.256;8.198;2022-07-18T15:42:35;40.80;35.00
47162;DHT22;32921;53.256;8.198;2022-07-18T15:45:01;41.20;35.50
47162;DHT22;32921;53.256;8.198;2022-07-18T15:47:26;41.40;35.10
47162;DHT22;32921;53.256;8.198;2022-07-18T15:49:52;41.50;34.50
47162;DHT22;32921;53.256;8.198;2022-07-18T15:52:17;41.80;34.70
47162;DHT22;32921;53.256;8.198;2022-07-18T15:54:43;41.70;35.10
47162;DHT22;32921;53.256;8.198;2022-07-18T15:57:08;41.30;34.40
47162;DHT22;32921;53.256;8.198;2022-07-18T15:59:34;41.30;33.90
47162;DHT22;32921;53.256;8.198;2022-07-18T16:02:00;41.50;34.70
47162;DHT22;32921;53.256;8.198;2022-07-18T16:04:26;41.00;35.50
47162;DHT22;32921;53.256;8.198;2022-07-18T16:06:51;41.50;35.20
47162;DHT22;32921;53.256;8.198;2022-07-18T16:09:17;41.50;34.00
47162;DHT22;32921;53.256;8.198;2022-07-18T16:11:43;39.50;35.70
47162;DHT22;32921;53.256;8.198;2022-07-18T16:14:09;37.00;37.80
47162;DHT22;32921;53.256;8.198;2022-07-18T16:16:36;35.10;40.70